createdAt,value
2019-04-29T00:02:28.816Z,10.60
2019-04-29T00:04:58.524Z,14.60
2019-04-29T00:07:28.340Z,11.97
2019-04-29T00:09:58.346Z,10.40
2019-04-29T00:12:29.496Z,12.85
2019-04-29T00:15:03.587Z,12.40
2019-04-29T00:17:34.961Z,12.43
2019-04-29T00:20:11.226Z,17.40
2019-04-29T00:22:40.862Z,15.48
2019-04-29T00:25:11.089Z,9.98
2019-04-29T00:27:40.826Z,15.13
2019-04-29T00:30:12.193Z,13.25
2019-04-29T00:32:41.776Z,13.93
2019-04-29T00:35:12.986Z,16.05
2019-04-29T00:37:45.062Z,14.70
2019-04-29T00:40:32.231Z,18.90
2019-04-29T00:43:19.389Z,16.80
2019-04-29T00:45:49.305Z,13.78
2019-04-29T00:48:19.206Z,17.02
2019-04-29T00:50:48.818Z,13.20
2019-04-29T00:53:18.509Z,11.63
2019-04-29T00:55:49.764Z,12.50
2019-04-29T00:58:19.538Z,20.00
2019-04-29T01:00:49.361Z,19.48
2019-04-29T01:03:19.095Z,18.62
2019-04-29T01:05:48.784Z,13.10
2019-04-29T01:08:18.458Z,16.97
2019-04-29T01:10:48.107Z,14.47
2019-04-29T01:13:17.828Z,13.38
2019-04-29T01:15:47.580Z,16.80
2019-04-29T01:18:17.483Z,21.17
2019-04-29T01:20:47.198Z,11.48
2019-04-29T01:23:16.778Z,22.52
2019-04-29T01:25:48.020Z,10.55
2019-04-29T01:28:22.013Z,9.48
2019-04-29T01:31:04.840Z,12.37
2019-04-29T01:33:34.661Z,14.53
2019-04-29T01:36:16.040Z,11.60
2019-04-29T01:38:48.857Z,13.85
2019-04-29T01:41:29.474Z,13.53
2019-04-29T01:44:00.830Z,15.95
2019-04-29T01:46:31.085Z,15.85
2019-04-29T01:49:00.784Z,11.40
2019-04-29T01:51:30.488Z,14.47
2019-04-29T01:54:00.454Z,14.40
2019-04-29T01:56:30.191Z,12.37
2019-04-29T01:58:59.963Z,13.13
2019-04-29T02:01:29.631Z,15.93
2019-04-29T02:03:59.361Z,15.50
2019-04-29T02:06:29.044Z,13.20
2019-04-29T02:08:59.086Z,16.02
2019-04-29T02:11:28.708Z,13.98
2019-04-29T02:13:58.288Z,11.88
2019-04-29T02:16:28.028Z,14.38
2019-04-29T02:18:57.617Z,14.93
2019-04-29T02:21:27.197Z,20.50
2019-04-29T02:24:00.907Z,19.23
2019-04-29T02:26:30.768Z,19.95
2019-04-29T02:29:00.439Z,17.75
2019-04-29T02:31:40.358Z,23.87
2019-04-29T02:34:11.330Z,22.42
2019-04-29T02:36:41.330Z,13.15
2019-04-29T02:39:12.642Z,14.40
2019-04-29T02:41:44.026Z,17.10
2019-04-29T02:44:13.952Z,22.93
2019-04-29T02:46:43.760Z,19.27
2019-04-29T02:49:13.483Z,25.72
2019-04-29T02:51:53.339Z,29.70
2019-04-29T02:54:24.866Z,53.50
2019-04-29T02:57:02.112Z,28.98
2019-04-29T02:59:31.560Z,35.90
2019-04-29T03:02:03.959Z,25.52
2019-04-29T03:04:38.008Z,43.90
2019-04-29T03:07:07.839Z,79.82
2019-04-29T03:09:46.612Z,28.80
2019-04-29T03:12:16.339Z,23.27
2019-04-29T03:14:45.967Z,24.32
2019-04-29T03:17:18.826Z,27.75
2019-04-29T03:20:05.161Z,35.10
2019-04-29T03:22:35.327Z,59.33
2019-04-29T03:25:06.381Z,42.15
2019-04-29T03:27:36.140Z,47.50
2019-04-29T03:30:08.802Z,56.02
2019-04-29T03:32:38.432Z,70.20
2019-04-29T03:35:08.931Z,30.32
2019-04-29T03:37:38.575Z,19.98
2019-04-29T03:40:08.391Z,12.35
2019-04-29T03:42:38.056Z,13.60
2019-04-29T03:45:09.047Z,37.75
2019-04-29T03:47:38.743Z,23.55
2019-04-29T03:50:08.572Z,23.15
2019-04-29T03:52:38.290Z,138.88
2019-04-29T03:55:08.599Z,225.70
2019-04-29T03:57:38.910Z,278.15
2019-04-29T04:00:12.632Z,463.22
2019-04-29T04:02:42.507Z,405.20
2019-04-29T04:05:17.093Z,784.45
2019-04-29T04:07:55.981Z,359.92
2019-04-29T04:10:25.805Z,646.70
2019-04-29T04:12:55.541Z,172.85
2019-04-29T04:15:25.544Z,152.87
2019-04-29T04:18:13.093Z,159.50
2019-04-29T04:20:43.079Z,364.80
2019-04-29T04:23:13.042Z,274.50
2019-04-29T04:25:43.041Z,438.40
2019-04-29T04:28:13.045Z,432.65
2019-04-29T04:30:43.134Z,263.00
2019-04-29T04:33:13.336Z,143.60
2019-04-29T04:35:43.410Z,190.53
2019-04-29T04:38:13.389Z,265.15
2019-04-29T04:40:45.090Z,301.48
2019-04-29T04:43:15.069Z,371.13
2019-04-29T04:45:45.290Z,165.52
2019-04-29T04:48:15.349Z,220.33
2019-04-29T04:50:45.426Z,369.98
2019-04-29T04:53:15.448Z,225.62
2019-04-29T04:55:47.010Z,309.32
2019-04-29T04:58:17.082Z,486.75
2019-04-29T05:00:47.357Z,276.27
2019-04-29T05:03:17.288Z,276.20
2019-04-29T05:05:47.211Z,597.90
2019-04-29T05:08:17.184Z,314.32
2019-04-29T05:10:47.320Z,133.45
2019-04-29T05:13:28.027Z,327.93
2019-04-29T05:15:49.401Z,189.75
2019-04-29T05:18:19.600Z,184.40
2019-04-29T05:20:49.682Z,226.70
2019-04-29T05:23:19.933Z,312.72
2019-04-29T05:25:49.980Z,291.20
2019-04-29T05:28:20.122Z,139.10
2019-04-29T05:30:50.222Z,128.00
2019-04-29T05:33:20.669Z,290.15
2019-04-29T05:36:03.496Z,249.42
2019-04-29T05:38:40.674Z,148.78
2019-04-29T05:41:11.014Z,245.15
2019-04-29T05:43:59.311Z,246.05
2019-04-29T05:46:43.490Z,242.70
2019-04-29T05:49:15.354Z,155.40
2019-04-29T05:51:53.034Z,386.65
2019-04-29T05:54:26.906Z,257.05
2019-04-29T05:56:56.651Z,256.38
2019-04-29T05:59:27.198Z,249.37
2019-04-29T06:01:57.753Z,352.98
2019-04-29T06:04:28.702Z,402.23
2019-04-29T06:06:59.063Z,471.17
2019-04-29T06:09:28.921Z,335.43
2019-04-29T06:11:58.870Z,443.00
2019-04-29T06:14:28.831Z,429.05
2019-04-29T06:17:02.829Z,879.78
2019-04-29T06:19:30.495Z,400.62
2019-04-29T06:22:00.331Z,517.75
2019-04-29T06:24:30.209Z,651.48
2019-04-29T06:27:00.033Z,572.87
2019-04-29T06:29:30.203Z,829.70
2019-04-29T06:32:00.018Z,494.23
2019-04-29T06:34:29.909Z,498.88
2019-04-29T06:36:59.708Z,583.70
2019-04-29T06:39:29.643Z,775.15
2019-04-29T06:41:59.483Z,669.20
2019-04-29T06:44:29.383Z,816.23
2019-04-29T06:46:59.331Z,383.50
2019-04-29T06:49:29.176Z,196.40
2019-04-29T06:51:59.176Z,183.15
2019-04-29T06:54:29.182Z,183.68
2019-04-29T06:56:59.166Z,648.67
2019-04-29T06:59:29.564Z,224.15
2019-04-29T07:01:59.637Z,381.90
2019-04-29T07:04:30.723Z,104.53
2019-04-29T07:07:01.735Z,134.12
2019-04-29T07:09:31.780Z,127.45
2019-04-29T07:12:02.270Z,75.12
2019-04-29T07:14:35.950Z,74.20
2019-04-29T07:17:05.755Z,90.55
2019-04-29T07:22:06.004Z,159.72
2019-04-29T07:24:36.536Z,173.35
2019-04-29T07:27:06.556Z,176.32
2019-04-29T07:29:38.124Z,182.00
2019-04-29T07:32:09.608Z,351.27
2019-04-29T07:35:15.986Z,182.72
2019-04-29T07:37:46.355Z,231.68
2019-04-29T07:40:17.901Z,287.90
2019-04-29T07:42:48.239Z,170.20
2019-04-29T07:45:18.886Z,144.60
2019-04-29T07:47:56.534Z,217.68
2019-04-29T07:50:26.843Z,217.65
2019-04-29T07:52:54.946Z,211.22
2019-04-29T07:55:25.906Z,294.27
2019-04-29T08:00:35.392Z,218.75
2019-04-29T08:03:08.553Z,146.07
2019-04-29T08:05:39.170Z,122.42
2019-04-29T08:08:09.278Z,157.70
2019-04-29T08:10:52.517Z,137.72
2019-04-29T08:13:13.135Z,144.93
2019-04-29T08:15:43.636Z,122.92
2019-04-29T08:18:16.274Z,114.25
2019-04-29T08:20:46.198Z,98.80
2019-04-29T08:23:16.445Z,114.28
2019-04-29T08:25:46.790Z,159.82
2019-04-29T08:28:17.003Z,180.72
2019-04-29T08:30:47.440Z,133.95
2019-04-29T08:33:17.786Z,157.72
2019-04-29T08:35:48.118Z,158.40
2019-04-29T08:38:18.356Z,157.60
2019-04-29T08:40:49.926Z,151.00
2019-04-29T08:46:01.823Z,90.85
2019-04-29T08:48:32.037Z,81.22
2019-04-29T08:51:02.463Z,63.45
2019-04-29T08:53:32.952Z,69.67
2019-04-29T08:56:05.612Z,72.27
2019-04-29T08:58:35.180Z,74.17
2019-04-29T09:01:05.496Z,75.50
2019-04-29T09:03:40.631Z,68.33
2019-04-29T09:06:07.760Z,68.85
2019-04-29T09:08:53.464Z,64.77
2019-04-29T09:13:41.339Z,68.02
2019-04-29T09:16:11.399Z,60.55
2019-04-29T09:18:41.496Z,60.55
2019-04-29T09:21:11.970Z,62.17
2019-04-29T09:23:42.252Z,65.70
2019-04-29T09:26:19.835Z,64.00
2019-04-29T09:28:50.195Z,73.67
2019-04-29T09:31:20.760Z,71.37
2019-04-29T09:33:59.686Z,73.50
2019-04-29T09:36:22.936Z,54.40
2019-04-29T09:38:53.381Z,33.50
2019-04-29T09:41:23.368Z,29.50
2019-04-29T09:44:04.008Z,24.95
2019-04-29T09:46:36.167Z,22.45
2019-04-29T09:51:35.749Z,17.07
2019-04-29T09:54:09.625Z,19.62
2019-04-29T09:56:37.918Z,17.37
2019-04-29T09:59:28.399Z,18.10
2019-04-29T10:02:16.440Z,16.00
2019-04-29T10:04:56.318Z,19.05
2019-04-29T10:07:20.136Z,15.75
2019-04-29T10:09:56.955Z,11.95
2019-04-29T10:12:22.317Z,17.17
2019-04-29T10:14:53.688Z,18.12
2019-04-29T10:17:23.681Z,14.00
2019-04-29T10:19:55.374Z,12.80
2019-04-29T10:22:25.606Z,13.32
2019-04-29T10:24:56.143Z,12.40
2019-04-29T10:27:26.295Z,14.35
2019-04-29T10:29:57.180Z,13.48
2019-04-29T10:32:27.766Z,9.08
2019-04-29T10:34:57.983Z,7.92
2019-04-29T10:37:31.412Z,17.20
2019-04-29T10:40:11.098Z,12.85
2019-04-29T10:42:36.051Z,7.55
2019-04-29T10:45:19.556Z,5.87
2019-04-29T10:47:49.658Z,7.28
2019-04-29T10:50:38.106Z,10.20
2019-04-29T10:53:11.137Z,9.78
2019-04-29T10:55:42.052Z,19.95
2019-04-29T10:58:13.202Z,14.63
2019-04-29T11:00:57.267Z,38.70
2019-04-29T11:03:27.151Z,8.18
2019-04-29T11:06:01.756Z,20.70
2019-04-29T11:08:38.032Z,4.90
2019-04-29T11:11:07.012Z,5.67
2019-04-29T11:13:45.965Z,4.17
2019-04-29T11:16:11.086Z,4.92
2019-04-29T11:18:41.551Z,6.47
2019-04-29T11:21:12.053Z,6.90
2019-04-29T11:23:43.786Z,9.73
2019-04-29T11:26:33.747Z,9.78
2019-04-29T11:29:06.274Z,5.97
2019-04-29T11:31:37.242Z,5.50
2019-04-29T11:34:15.962Z,7.10
2019-04-29T11:36:46.096Z,4.58
2019-04-29T11:39:17.559Z,6.90
2019-04-29T11:41:50.038Z,3.58
2019-04-29T11:44:21.846Z,7.75
2019-04-29T11:49:22.888Z,11.78
2019-04-29T11:52:08.430Z,5.05
2019-04-29T11:54:25.080Z,5.65
2019-04-29T11:56:55.507Z,5.50
2019-04-29T11:59:44.977Z,12.73
2019-04-29T12:02:44.493Z,7.47
2019-04-29T12:05:08.760Z,4.25
2019-04-29T12:07:38.562Z,4.72
2019-04-29T12:10:09.478Z,4.22
2019-04-29T12:12:43.527Z,3.80
2019-04-29T12:15:13.606Z,5.62
2019-04-29T12:17:46.465Z,4.33
2019-04-29T12:20:27.835Z,6.30
2019-04-29T12:22:58.038Z,6.37
2019-04-29T12:25:29.335Z,3.98
2019-04-29T12:28:02.055Z,6.12
2019-04-29T12:30:34.602Z,4.95
2019-04-29T12:33:06.928Z,4.55
2019-04-29T12:35:51.763Z,7.28
2019-04-29T12:38:21.346Z,8.93
2019-04-29T12:41:19.696Z,7.25
2019-04-29T12:43:59.172Z,5.10
2019-04-29T12:46:40.427Z,6.55
2019-04-29T12:49:13.526Z,8.18
2019-04-29T12:54:12.068Z,4.03
2019-04-29T12:56:43.088Z,6.92
2019-04-29T12:59:14.701Z,7.80
2019-04-29T13:02:03.932Z,9.23
2019-04-29T13:04:52.236Z,5.28
2019-04-29T13:07:33.564Z,6.35
2019-04-29T13:10:13.736Z,6.08
2019-04-29T13:12:44.685Z,6.95
2019-04-29T13:18:13.028Z,4.95
2019-04-29T13:20:41.455Z,5.50
2019-04-29T13:25:41.308Z,4.90
2019-04-29T13:28:11.657Z,6.70
2019-04-29T13:30:43.414Z,3.08
2019-04-29T13:33:22.503Z,6.12
2019-04-29T13:35:48.422Z,6.60
2019-04-29T13:38:17.675Z,3.70
2019-04-29T13:40:48.021Z,5.15
2019-04-29T13:43:20.697Z,7.20
2019-04-29T13:45:51.629Z,5.80
2019-04-29T13:48:54.319Z,5.20
2019-04-29T13:51:34.425Z,6.03
2019-04-29T13:53:49.814Z,3.77
2019-04-29T13:56:35.111Z,5.03
2019-04-29T13:58:51.822Z,5.65
2019-04-29T14:01:32.962Z,4.22
2019-04-29T14:04:07.518Z,4.83
2019-04-29T14:06:39.126Z,4.08
2019-04-29T14:09:10.604Z,4.62
2019-04-29T14:11:40.911Z,6.12
2019-04-29T14:14:11.365Z,3.72
2019-04-29T14:16:43.149Z,3.80
2019-04-29T14:19:13.398Z,10.88
2019-04-29T14:21:43.736Z,10.68
2019-04-29T14:24:14.107Z,5.37
2019-04-29T14:26:47.751Z,9.15
2019-04-29T14:31:47.255Z,8.60
2019-04-29T14:34:21.840Z,6.78
2019-04-29T14:36:57.485Z,3.15
2019-04-29T14:39:36.620Z,4.47
2019-04-29T14:44:46.824Z,13.05
2019-04-29T14:47:25.728Z,5.70
2019-04-29T14:50:00.720Z,3.95
2019-04-29T14:52:31.063Z,5.17
2019-04-29T14:55:01.314Z,6.65
2019-04-29T14:57:31.527Z,4.08
2019-04-29T15:00:01.822Z,5.08
2019-04-29T15:02:32.545Z,5.90
2019-04-29T15:05:07.063Z,8.10
2019-04-29T15:10:11.195Z,6.65
2019-04-29T15:13:19.661Z,5.30
2019-04-29T15:15:36.026Z,6.12
2019-04-29T15:18:16.228Z,4.58
2019-04-29T15:20:56.211Z,3.83
2019-04-29T15:23:29.268Z,2.80
2019-04-29T15:28:27.047Z,5.22
2019-04-29T15:30:57.286Z,3.95
2019-04-29T15:33:30.579Z,8.88
2019-04-29T15:38:30.679Z,6.80
2019-04-29T15:41:00.976Z,5.67
2019-04-29T15:43:46.462Z,5.40
2019-04-29T15:46:06.713Z,6.45
2019-04-29T15:48:35.202Z,7.97
2019-04-29T15:51:09.211Z,4.03
2019-04-29T15:53:37.824Z,3.85
2019-04-29T15:56:27.194Z,4.47
2019-04-29T16:01:16.859Z,3.20
2019-04-29T16:03:42.914Z,5.97
2019-04-29T16:06:27.009Z,3.37
2019-04-29T16:09:05.004Z,4.87
2019-04-29T16:11:34.949Z,4.80
2019-04-29T16:14:09.908Z,5.70
2019-04-29T16:16:39.224Z,3.83
2019-04-29T16:19:10.447Z,7.33
2019-04-29T16:21:41.826Z,2.58
2019-04-29T16:24:26.017Z,5.65
2019-04-29T16:26:44.141Z,3.95
2019-04-29T16:29:15.387Z,3.35
2019-04-29T16:31:45.994Z,4.83
2019-04-29T16:34:16.077Z,6.75
2019-04-29T16:36:49.893Z,2.83
2019-04-29T16:39:18.200Z,5.45
2019-04-29T16:41:58.043Z,4.15
2019-04-29T16:44:35.708Z,2.58
2019-04-29T16:46:59.770Z,4.00
2019-04-29T16:49:30.027Z,4.85
2019-04-29T16:52:00.330Z,4.15
2019-04-29T16:54:30.823Z,4.72
2019-04-29T16:57:01.153Z,5.20
2019-04-29T16:59:31.433Z,2.67
2019-04-29T17:02:01.845Z,4.53
2019-04-29T17:04:32.147Z,3.75
2019-04-29T17:07:12.412Z,3.05
2019-04-29T17:09:41.771Z,2.75
2019-04-29T17:12:11.944Z,6.22
2019-04-29T17:15:02.434Z,5.67
2019-04-29T17:17:28.539Z,3.60
2019-04-29T17:19:53.622Z,6.00
2019-04-29T17:22:26.082Z,3.55
2019-04-29T17:24:56.087Z,3.67
2019-04-29T17:27:28.798Z,5.10
2019-04-29T17:30:04.065Z,2.87
2019-04-29T17:32:48.473Z,2.92
2019-04-29T17:35:21.694Z,3.92
2019-04-29T17:40:20.350Z,4.78
2019-04-29T17:42:52.352Z,2.35
2019-04-29T17:45:33.804Z,3.92
2019-04-29T17:48:05.539Z,5.97
2019-04-29T17:50:46.199Z,3.05
2019-04-29T17:53:15.208Z,2.92
2019-04-29T17:55:47.003Z,2.70
2019-04-29T17:58:35.867Z,3.58
2019-04-29T18:01:08.437Z,4.83
2019-04-29T18:03:42.715Z,3.40
2019-04-29T18:06:24.354Z,5.28
2019-04-29T18:08:55.023Z,6.62
2019-04-29T18:11:25.477Z,7.17
2019-04-29T18:13:56.950Z,6.55
2019-04-29T18:16:29.509Z,5.80
2019-04-29T18:21:53.643Z,7.65
2019-04-29T18:24:25.431Z,4.92
2019-04-29T18:27:03.369Z,5.20
2019-04-29T18:29:36.340Z,7.65
2019-04-29T18:32:07.942Z,9.48
2019-04-29T18:34:38.131Z,12.23
2019-04-29T18:37:08.430Z,7.17
2019-04-29T18:39:38.656Z,6.53
2019-04-29T18:42:09.473Z,4.90
2019-04-29T18:44:42.036Z,8.60
2019-04-29T18:47:20.665Z,4.45
2019-04-29T18:49:43.221Z,5.20
2019-04-29T18:52:23.841Z,4.70
2019-04-29T18:54:45.314Z,4.70
2019-04-29T18:57:27.418Z,6.35
2019-04-29T18:59:47.443Z,6.62
2019-04-29T19:02:17.423Z,11.00
2019-04-29T19:04:56.452Z,10.88
2019-04-29T19:07:26.680Z,11.83
2019-04-29T19:09:56.517Z,5.35
2019-04-29T19:12:26.316Z,9.18
2019-04-29T19:15:04.422Z,9.00
2019-04-29T19:17:30.867Z,9.78
2019-04-29T19:20:01.947Z,9.08
2019-04-29T19:22:31.821Z,4.87
2019-04-29T19:25:01.408Z,11.80
2019-04-29T19:27:37.170Z,11.68
2019-04-29T19:30:03.073Z,14.65
2019-04-29T19:32:32.747Z,8.30
2019-04-29T19:35:02.570Z,10.30
2019-04-29T19:37:36.345Z,7.60
2019-04-29T19:40:04.878Z,9.00
2019-04-29T19:42:35.906Z,10.70
2019-04-29T19:45:13.159Z,4.22
2019-04-29T19:47:38.524Z,9.93
2019-04-29T19:50:10.470Z,11.40
2019-04-29T19:55:09.336Z,8.43
2019-04-29T19:57:46.878Z,11.35
2019-04-29T20:00:11.296Z,12.35
2019-04-29T20:02:48.252Z,13.43
2019-04-29T20:05:16.477Z,13.40
2019-04-29T20:07:49.674Z,8.60
2019-04-29T20:10:18.846Z,10.03
2019-04-29T20:12:53.344Z,14.93
2019-04-29T20:15:21.109Z,16.12
2019-04-29T20:17:52.848Z,12.00
2019-04-29T20:20:25.351Z,9.98
2019-04-29T20:22:55.700Z,10.08
2019-04-29T20:25:32.347Z,9.55
2019-04-29T20:28:05.534Z,8.73
2019-04-29T20:30:28.916Z,10.23
2019-04-29T20:33:01.209Z,9.83
2019-04-29T20:35:30.330Z,16.40
2019-04-29T20:38:00.428Z,10.75
2019-04-29T20:40:35.297Z,14.45
2019-04-29T20:43:01.892Z,12.75
2019-04-29T20:45:31.657Z,11.48
2019-04-29T20:48:01.459Z,8.98
2019-04-29T20:50:31.340Z,6.35
2019-04-29T20:53:02.491Z,4.80
2019-04-29T20:55:36.663Z,6.83
2019-04-29T20:58:06.437Z,7.22
2019-04-29T21:00:37.003Z,6.62
2019-04-29T21:03:09.301Z,7.40
2019-04-29T21:05:47.391Z,5.45
2019-04-29T21:08:16.470Z,8.25
2019-04-29T21:10:42.926Z,6.25
2019-04-29T21:13:30.061Z,8.25
2019-04-29T21:16:07.032Z,7.90
2019-04-29T21:18:38.780Z,6.10
2019-04-29T21:21:08.287Z,6.53
2019-04-29T21:23:38.034Z,6.62
2019-04-29T21:26:08.792Z,9.68
2019-04-29T21:28:41.455Z,8.73
2019-04-29T21:31:11.763Z,9.68
2019-04-29T21:33:41.633Z,8.70
2019-04-29T21:36:12.877Z,8.45
2019-04-29T21:39:01.661Z,7.20
2019-04-29T21:41:39.276Z,8.43
2019-04-29T21:44:08.933Z,7.55
2019-04-29T21:46:38.781Z,9.33
2019-04-29T21:49:11.633Z,14.78
2019-04-29T21:51:41.834Z,8.63
2019-04-29T21:54:14.227Z,9.58
2019-04-29T21:56:46.471Z,12.73
2019-04-29T21:59:15.759Z,12.45
2019-04-29T22:01:46.654Z,10.45
2019-04-29T22:04:16.245Z,10.68
2019-04-29T22:06:47.510Z,11.15
2019-04-29T22:09:19.068Z,10.93
2019-04-29T22:11:48.945Z,11.05
2019-04-29T22:14:18.814Z,10.53
2019-04-29T22:16:53.650Z,8.83
2019-04-29T22:19:26.049Z,11.10
2019-04-29T22:21:52.785Z,11.45
2019-04-29T22:24:26.166Z,11.53
2019-04-29T22:26:56.403Z,12.13
2019-04-29T22:29:25.779Z,11.08
2019-04-29T22:31:55.970Z,10.68
2019-04-29T22:34:27.177Z,11.12
2019-04-29T22:36:58.352Z,9.93
2019-04-29T22:39:30.170Z,10.50
2019-04-29T22:42:02.427Z,14.83
2019-04-29T22:44:32.262Z,12.53
2019-04-29T22:47:01.956Z,12.93
2019-04-29T22:49:31.738Z,9.93
2019-04-29T22:52:01.483Z,12.53
2019-04-29T22:54:31.361Z,10.03
2019-04-29T22:57:01.213Z,15.80
2019-04-29T22:59:31.111Z,12.20
2019-04-29T23:02:00.942Z,12.33
2019-04-29T23:04:30.628Z,11.45
2019-04-29T23:07:00.243Z,16.05
2019-04-29T23:09:29.956Z,13.48
2019-04-29T23:12:01.347Z,19.90
2019-04-29T23:14:31.128Z,16.75
2019-04-29T23:17:00.943Z,19.12
2019-04-29T23:19:30.634Z,15.23
2019-04-29T23:22:16.892Z,15.00
2019-04-29T23:24:46.677Z,20.77
2019-04-29T23:27:19.499Z,19.02
2019-04-29T23:29:47.573Z,21.65
2019-04-29T23:32:17.313Z,18.50
2019-04-29T23:34:47.129Z,16.45
2019-04-29T23:37:19.540Z,16.20
2019-04-29T23:39:48.376Z,17.75
2019-04-29T23:42:18.145Z,24.75
2019-04-29T23:44:47.805Z,16.70
2019-04-29T23:47:17.842Z,16.67
2019-04-29T23:49:47.594Z,16.42
2019-04-29T23:52:17.969Z,19.23
2019-04-29T23:54:48.588Z,20.77
2019-04-29T23:57:23.655Z,19.12
